sensor_id;sensor_type;location;lat;lon;timestamp;P1;durP1;ratioP1;P2;durP2;ratioP2
60352;SDS011;46196;52.970;6.954;2023-09-30T00:00:42;11.20;;;4.53;;
60352;SDS011;46196;52.970;6.954;2023-09-30T00:03:09;16.10;;;4.13;;
60352;SDS011;46196;52.970;6.954;2023-09-30T00:05:36;12.82;;;4.25;;
60352;SDS011;46196;52.970;6.954;2023-09-30T00:08:02;9.05;;;4.75;;
60352;SDS011;46196;52.970;6.954;2023-09-30T00:10:28;13.95;;;4.20;;
60352;SDS011;46196;52.970;6.954;2023-09-30T00:12:55;11.93;;;3.92;;
60352;SDS011;46196;52.970;6.954;2023-09-30T00:15:22;15.52;;;4.25;;
60352;SDS011;46196;52.970;6.954;2023-09-30T00:17:48;15.15;;;4.40;;
60352;SDS011;46196;52.970;6.954;2023-09-30T00:20:13;16.27;;;4.13;;
60352;SDS011;46196;52.970;6.954;2023-09-30T00:22:40;8.85;;;4.78;;
60352;SDS011;46196;52.970;6.954;2023-09-30T00:25:06;13.63;;;4.35;;
60352;SDS011;46196;52.970;6.954;2023-09-30T00:27:32;12.00;;;4.28;;
60352;SDS011;46196;52.970;6.954;2023-09-30T00:29:58;12.88;;;4.65;;
60352;SDS011;46196;52.970;6.954;2023-09-30T00:32:24;12.00;;;4.10;;
60352;SDS011;46196;52.970;6.954;2023-09-30T00:34:49;11.50;;;4.53;;
60352;SDS011;46196;52.970;6.954;2023-09-30T00:37:17;11.20;;;4.28;;
60352;SDS011;46196;52.970;6.954;2023-09-30T00:39:43;11.10;;;4.40;;
60352;SDS011;46196;52.970;6.954;2023-09-30T00:42:10;14.25;;;4.40;;
60352;SDS011;46196;52.970;6.954;2023-09-30T00:44:36;12.05;;;3.97;;
60352;SDS011;46196;52.970;6.954;2023-09-30T00:47:02;10.68;;;3.70;;
60352;SDS011;46196;52.970;6.954;2023-09-30T00:49:28;13.55;;;4.22;;
60352;SDS011;46196;52.970;6.954;2023-09-30T00:51:55;9.40;;;4.15;;
60352;SDS011;46196;52.970;6.954;2023-09-30T00:54:22;12.98;;;4.88;;
60352;SDS011;46196;52.970;6.954;2023-09-30T00:56:50;18.83;;;6.70;;
60352;SDS011;46196;52.970;6.954;2023-09-30T00:59:17;13.27;;;4.22;;
60352;SDS011;46196;52.970;6.954;2023-09-30T01:01:45;13.88;;;4.57;;
60352;SDS011;46196;52.970;6.954;2023-09-30T01:04:11;13.50;;;4.25;;
60352;SDS011;46196;52.970;6.954;2023-09-30T01:06:37;11.32;;;4.43;;
60352;SDS011;46196;52.970;6.954;2023-09-30T01:09:07;13.18;;;4.50;;
60352;SDS011;46196;52.970;6.954;2023-09-30T01:11:34;12.02;;;4.75;;
60352;SDS011;46196;52.970;6.954;2023-09-30T01:13:59;10.65;;;4.00;;
60352;SDS011;46196;52.970;6.954;2023-09-30T01:16:25;12.57;;;4.30;;
60352;SDS011;46196;52.970;6.954;2023-09-30T01:18:51;10.75;;;4.47;;
60352;SDS011;46196;52.970;6.954;2023-09-30T01:21:18;8.60;;;3.78;;
60352;SDS011;46196;52.970;6.954;2023-09-30T01:23:45;9.10;;;3.90;;
60352;SDS011;46196;52.970;6.954;2023-09-30T01:26:12;13.73;;;4.70;;
60352;SDS011;46196;52.970;6.954;2023-09-30T01:28:38;13.40;;;4.70;;
60352;SDS011;46196;52.970;6.954;2023-09-30T01:31:05;9.90;;;4.30;;
60352;SDS011;46196;52.970;6.954;2023-09-30T01:33:31;11.88;;;4.53;;
60352;SDS011;46196;52.970;6.954;2023-09-30T01:35:58;14.25;;;4.68;;
60352;SDS011;46196;52.970;6.954;2023-09-30T01:38:27;14.63;;;5.53;;
60352;SDS011;46196;52.970;6.954;2023-09-30T01:40:53;12.65;;;4.20;;
60352;SDS011;46196;52.970;6.954;2023-09-30T01:43:19;13.43;;;5.40;;
60352;SDS011;46196;52.970;6.954;2023-09-30T01:45:45;11.48;;;4.88;;
60352;SDS011;46196;52.970;6.954;2023-09-30T01:48:11;12.65;;;5.15;;
60352;SDS011;46196;52.970;6.954;2023-09-30T01:50:37;11.15;;;4.63;;
60352;SDS011;46196;52.970;6.954;2023-09-30T01:53:06;11.80;;;4.57;;
60352;SDS011;46196;52.970;6.954;2023-09-30T01:55:32;9.40;;;4.15;;
60352;SDS011;46196;52.970;6.954;2023-09-30T01:57:59;10.77;;;4.93;;
60352;SDS011;46196;52.970;6.954;2023-09-30T02:00:25;12.23;;;4.28;;
60352;SDS011;46196;52.970;6.954;2023-09-30T02:02:53;12.32;;;4.68;;
60352;SDS011;46196;52.970;6.954;2023-09-30T02:05:19;14.25;;;5.05;;
60352;SDS011;46196;52.970;6.954;2023-09-30T02:07:45;12.65;;;4.30;;
60352;SDS011;46196;52.970;6.954;2023-09-30T02:10:11;11.27;;;4.40;;
60352;SDS011;46196;52.970;6.954;2023-09-30T02:12:36;15.15;;;4.82;;
60352;SDS011;46196;52.970;6.954;2023-09-30T02:15:03;7.82;;;3.47;;
60352;SDS011;46196;52.970;6.954;2023-09-30T02:17:29;8.15;;;3.47;;
60352;SDS011;46196;52.970;6.954;2023-09-30T02:19:55;14.23;;;5.03;;
60352;SDS011;46196;52.970;6.954;2023-09-30T02:22:20;13.07;;;5.05;;
60352;SDS011;46196;52.970;6.954;2023-09-30T02:24:46;12.55;;;4.95;;
60352;SDS011;46196;52.970;6.954;2023-09-30T02:27:13;13.30;;;4.95;;
60352;SDS011;46196;52.970;6.954;2023-09-30T02:29:39;12.93;;;3.65;;
60352;SDS011;46196;52.970;6.954;2023-09-30T02:32:08;16.27;;;5.90;;
60352;SDS011;46196;52.970;6.954;2023-09-30T02:34:34;12.70;;;4.43;;
60352;SDS011;46196;52.970;6.954;2023-09-30T02:37:00;13.23;;;5.18;;
60352;SDS011;46196;52.970;6.954;2023-09-30T02:39:26;16.92;;;4.53;;
60352;SDS011;46196;52.970;6.954;2023-09-30T02:41:51;11.90;;;4.97;;
60352;SDS011;46196;52.970;6.954;2023-09-30T02:44:17;12.68;;;4.57;;
60352;SDS011;46196;52.970;6.954;2023-09-30T02:46:43;10.90;;;5.45;;
60352;SDS011;46196;52.970;6.954;2023-09-30T02:49:09;12.90;;;4.75;;
60352;SDS011;46196;52.970;6.954;2023-09-30T02:51:34;15.27;;;5.10;;
60352;SDS011;46196;52.970;6.954;2023-09-30T02:54:00;9.70;;;4.35;;
60352;SDS011;46196;52.970;6.954;2023-09-30T02:56:27;9.80;;;4.60;;
60352;SDS011;46196;52.970;6.954;2023-09-30T02:58:55;10.57;;;4.30;;
60352;SDS011;46196;52.970;6.954;2023-09-30T03:01:21;10.45;;;4.15;;
60352;SDS011;46196;52.970;6.954;2023-09-30T03:03:47;11.60;;;5.03;;
60352;SDS011;46196;52.970;6.954;2023-09-30T03:06:13;9.25;;;4.32;;
60352;SDS011;46196;52.970;6.954;2023-09-30T03:08:40;13.15;;;4.97;;
60352;SDS011;46196;52.970;6.954;2023-09-30T03:11:06;12.93;;;4.88;;
60352;SDS011;46196;52.970;6.954;2023-09-30T03:13:32;10.07;;;4.47;;
60352;SDS011;46196;52.970;6.954;2023-09-30T03:15:59;13.18;;;4.82;;
60352;SDS011;46196;52.970;6.954;2023-09-30T03:18:26;12.73;;;5.20;;
60352;SDS011;46196;52.970;6.954;2023-09-30T03:20:57;14.55;;;4.55;;
60352;SDS011;46196;52.970;6.954;2023-09-30T03:23:27;13.32;;;4.90;;
60352;SDS011;46196;52.970;6.954;2023-09-30T03:25:58;12.15;;;4.70;;
60352;SDS011;46196;52.970;6.954;2023-09-30T03:30:51;14.10;;;4.20;;
60352;SDS011;46196;52.970;6.954;2023-09-30T03:33:17;15.50;;;4.78;;
60352;SDS011;46196;52.970;6.954;2023-09-30T03:35:43;14.20;;;5.22;;
60352;SDS011;46196;52.970;6.954;2023-09-30T03:38:09;11.70;;;4.80;;
60352;SDS011;46196;52.970;6.954;2023-09-30T03:40:36;15.10;;;4.95;;
60352;SDS011;46196;52.970;6.954;2023-09-30T03:43:03;10.60;;;4.95;;
60352;SDS011;46196;52.970;6.954;2023-09-30T03:45:32;14.48;;;5.03;;
60352;SDS011;46196;52.970;6.954;2023-09-30T03:47:58;11.52;;;4.75;;
60352;SDS011;46196;52.970;6.954;2023-09-30T03:50:24;13.00;;;5.07;;
60352;SDS011;46196;52.970;6.954;2023-09-30T03:52:49;12.75;;;5.75;;
60352;SDS011;46196;52.970;6.954;2023-09-30T03:55:15;7.75;;;4.80;;
60352;SDS011;46196;52.970;6.954;2023-09-30T03:57:43;16.17;;;4.90;;
60352;SDS011;46196;52.970;6.954;2023-09-30T04:00:13;12.02;;;4.78;;
60352;SDS011;46196;52.970;6.954;2023-09-30T04:02:43;14.60;;;4.53;;
60352;SDS011;46196;52.970;6.954;2023-09-30T04:05:13;13.00;;;5.43;;
60352;SDS011;46196;52.970;6.954;2023-09-30T04:07:40;16.40;;;5.47;;
60352;SDS011;46196;52.970;6.954;2023-09-30T04:10:07;10.68;;;5.15;;
60352;SDS011;46196;52.970;6.954;2023-09-30T04:12:34;12.65;;;4.90;;
60352;SDS011;46196;52.970;6.954;2023-09-30T04:15:00;13.60;;;5.13;;
60352;SDS011;46196;52.970;6.954;2023-09-30T04:17:29;16.08;;;4.97;;
60352;SDS011;46196;52.970;6.954;2023-09-30T04:19:56;11.52;;;5.13;;
60352;SDS011;46196;52.970;6.954;2023-09-30T04:22:22;11.27;;;4.72;;
60352;SDS011;46196;52.970;6.954;2023-09-30T04:24:49;11.80;;;4.68;;
60352;SDS011;46196;52.970;6.954;2023-09-30T04:27:15;10.98;;;5.15;;
60352;SDS011;46196;52.970;6.954;2023-09-30T04:29:42;12.23;;;5.43;;
60352;SDS011;46196;52.970;6.954;2023-09-30T04:32:08;11.65;;;5.20;;
60352;SDS011;46196;52.970;6.954;2023-09-30T04:34:35;14.18;;;5.60;;
60352;SDS011;46196;52.970;6.954;2023-09-30T04:37:01;11.38;;;5.00;;
60352;SDS011;46196;52.970;6.954;2023-09-30T04:39:27;13.98;;;5.28;;
60352;SDS011;46196;52.970;6.954;2023-09-30T04:41:52;11.88;;;5.10;;
60352;SDS011;46196;52.970;6.954;2023-09-30T04:44:19;12.25;;;6.13;;
60352;SDS011;46196;52.970;6.954;2023-09-30T04:46:47;11.10;;;4.97;;
60352;SDS011;46196;52.970;6.954;2023-09-30T04:49:14;10.90;;;4.90;;
60352;SDS011;46196;52.970;6.954;2023-09-30T04:51:40;16.33;;;6.05;;
60352;SDS011;46196;52.970;6.954;2023-09-30T04:54:06;12.05;;;5.68;;
60352;SDS011;46196;52.970;6.954;2023-09-30T04:56:33;11.38;;;5.13;;
60352;SDS011;46196;52.970;6.954;2023-09-30T04:59:00;8.18;;;4.78;;
60352;SDS011;46196;52.970;6.954;2023-09-30T05:01:27;17.42;;;5.80;;
60352;SDS011;46196;52.970;6.954;2023-09-30T05:03:53;10.90;;;5.45;;
60352;SDS011;46196;52.970;6.954;2023-09-30T05:06:19;12.93;;;5.80;;
60352;SDS011;46196;52.970;6.954;2023-09-30T05:08:46;12.90;;;5.30;;
60352;SDS011;46196;52.970;6.954;2023-09-30T05:11:13;13.00;;;5.47;;
60352;SDS011;46196;52.970;6.954;2023-09-30T05:13:39;12.77;;;5.47;;
60352;SDS011;46196;52.970;6.954;2023-09-30T05:16:05;10.93;;;5.13;;
60352;SDS011;46196;52.970;6.954;2023-09-30T05:18:32;10.68;;;5.30;;
60352;SDS011;46196;52.970;6.954;2023-09-30T05:20:58;9.50;;;4.82;;
60352;SDS011;46196;52.970;6.954;2023-09-30T05:23:24;11.23;;;5.07;;
60352;SDS011;46196;52.970;6.954;2023-09-30T05:25:50;17.73;;;5.93;;
60352;SDS011;46196;52.970;6.954;2023-09-30T05:28:16;12.57;;;5.57;;
60352;SDS011;46196;52.970;6.954;2023-09-30T05:30:42;15.27;;;5.78;;
60352;SDS011;46196;52.970;6.954;2023-09-30T05:33:08;12.25;;;5.40;;
60352;SDS011;46196;52.970;6.954;2023-09-30T05:35:39;11.70;;;4.78;;
60352;SDS011;46196;52.970;6.954;2023-09-30T05:38:08;16.00;;;5.57;;
60352;SDS011;46196;52.970;6.954;2023-09-30T05:40:35;9.95;;;5.30;;
60352;SDS011;46196;52.970;6.954;2023-09-30T05:43:01;14.48;;;5.85;;
60352;SDS011;46196;52.970;6.954;2023-09-30T05:45:30;14.68;;;6.43;;
60352;SDS011;46196;52.970;6.954;2023-09-30T05:47:59;19.65;;;6.57;;
60352;SDS011;46196;52.970;6.954;2023-09-30T05:50:29;11.82;;;5.43;;
60352;SDS011;46196;52.970;6.954;2023-09-30T05:52:56;13.38;;;6.00;;
60352;SDS011;46196;52.970;6.954;2023-09-30T05:55:23;14.45;;;6.00;;
60352;SDS011;46196;52.970;6.954;2023-09-30T05:57:50;12.70;;;5.80;;
60352;SDS011;46196;52.970;6.954;2023-09-30T06:00:17;10.63;;;5.10;;
60352;SDS011;46196;52.970;6.954;2023-09-30T06:02:59;13.13;;;6.32;;
60352;SDS011;46196;52.970;6.954;2023-09-30T06:05:25;17.17;;;6.78;;
60352;SDS011;46196;52.970;6.954;2023-09-30T06:07:55;12.65;;;6.55;;
60352;SDS011;46196;52.970;6.954;2023-09-30T06:10:22;12.20;;;5.43;;
60352;SDS011;46196;52.970;6.954;2023-09-30T06:12:48;14.07;;;5.95;;
60352;SDS011;46196;52.970;6.954;2023-09-30T06:15:15;17.15;;;6.65;;
60352;SDS011;46196;52.970;6.954;2023-09-30T06:17:45;13.07;;;6.32;;
60352;SDS011;46196;52.970;6.954;2023-09-30T06:20:11;9.70;;;5.78;;
60352;SDS011;46196;52.970;6.954;2023-09-30T06:22:43;9.85;;;6.30;;
60352;SDS011;46196;52.970;6.954;2023-09-30T06:25:10;11.90;;;6.55;;
60352;SDS011;46196;52.970;6.954;2023-09-30T06:27:38;13.68;;;7.35;;
60352;SDS011;46196;52.970;6.954;2023-09-30T06:30:04;15.85;;;7.15;;
60352;SDS011;46196;52.970;6.954;2023-09-30T06:32:30;16.48;;;6.80;;
60352;SDS011;46196;52.970;6.954;2023-09-30T06:34:56;15.15;;;6.53;;
60352;SDS011;46196;52.970;6.954;2023-09-30T06:37:22;18.25;;;7.65;;
60352;SDS011;46196;52.970;6.954;2023-09-30T06:39:48;13.88;;;6.95;;
60352;SDS011;46196;52.970;6.954;2023-09-30T06:42:14;12.98;;;7.55;;
60352;SDS011;46196;52.970;6.954;2023-09-30T06:44:42;15.27;;;6.85;;
60352;SDS011;46196;52.970;6.954;2023-09-30T06:47:07;14.95;;;7.85;;
60352;SDS011;46196;52.970;6.954;2023-09-30T06:49:37;17.83;;;7.57;;
60352;SDS011;46196;52.970;6.954;2023-09-30T06:52:03;15.52;;;7.03;;
60352;SDS011;46196;52.970;6.954;2023-09-30T06:54:30;14.30;;;7.13;;
60352;SDS011;46196;52.970;6.954;2023-09-30T06:56:56;16.38;;;7.68;;
60352;SDS011;46196;52.970;6.954;2023-09-30T06:59:22;12.82;;;7.05;;
60352;SDS011;46196;52.970;6.954;2023-09-30T07:01:50;17.20;;;7.32;;
60352;SDS011;46196;52.970;6.954;2023-09-30T07:04:16;12.27;;;7.30;;
60352;SDS011;46196;52.970;6.954;2023-09-30T07:06:42;11.50;;;6.38;;
60352;SDS011;46196;52.970;6.954;2023-09-30T07:09:07;13.52;;;8.02;;
60352;SDS011;46196;52.970;6.954;2023-09-30T07:11:35;13.13;;;6.45;;
60352;SDS011;46196;52.970;6.954;2023-09-30T07:14:01;13.20;;;6.95;;
60352;SDS011;46196;52.970;6.954;2023-09-30T07:16:27;13.45;;;7.82;;
60352;SDS011;46196;52.970;6.954;2023-09-30T07:18:53;16.30;;;7.28;;
60352;SDS011;46196;52.970;6.954;2023-09-30T07:21:20;18.95;;;8.00;;
60352;SDS011;46196;52.970;6.954;2023-09-30T07:23:46;15.35;;;7.30;;
60352;SDS011;46196;52.970;6.954;2023-09-30T07:26:13;14.50;;;6.82;;
60352;SDS011;46196;52.970;6.954;2023-09-30T07:28:39;17.77;;;7.15;;
60352;SDS011;46196;52.970;6.954;2023-09-30T07:31:05;16.15;;;7.32;;
60352;SDS011;46196;52.970;6.954;2023-09-30T07:33:31;14.88;;;7.22;;
60352;SDS011;46196;52.970;6.954;2023-09-30T07:35:57;14.70;;;7.13;;
60352;SDS011;46196;52.970;6.954;2023-09-30T07:38:23;15.70;;;7.80;;
60352;SDS011;46196;52.970;6.954;2023-09-30T07:40:49;13.32;;;6.63;;
60352;SDS011;46196;52.970;6.954;2023-09-30T07:43:15;16.10;;;7.97;;
60352;SDS011;46196;52.970;6.954;2023-09-30T07:45:42;10.38;;;5.90;;
60352;SDS011;46196;52.970;6.954;2023-09-30T07:48:08;10.73;;;5.95;;
60352;SDS011;46196;52.970;6.954;2023-09-30T07:50:37;12.40;;;7.25;;
60352;SDS011;46196;52.970;6.954;2023-09-30T07:53:04;12.65;;;6.93;;
60352;SDS011;46196;52.970;6.954;2023-09-30T07:55:30;19.45;;;7.05;;
60352;SDS011;46196;52.970;6.954;2023-09-30T07:57:56;16.23;;;7.78;;
60352;SDS011;46196;52.970;6.954;2023-09-30T08:00:22;14.35;;;6.88;;
60352;SDS011;46196;52.970;6.954;2023-09-30T08:02:48;12.48;;;7.13;;
60352;SDS011;46196;52.970;6.954;2023-09-30T08:05:15;11.27;;;5.80;;
60352;SDS011;46196;52.970;6.954;2023-09-30T08:07:41;11.13;;;5.90;;
60352;SDS011;46196;52.970;6.954;2023-09-30T08:10:07;10.57;;;5.55;;
60352;SDS011;46196;52.970;6.954;2023-09-30T08:12:38;8.43;;;6.13;;
60352;SDS011;46196;52.970;6.954;2023-09-30T08:15:04;15.98;;;6.40;;
60352;SDS011;46196;52.970;6.954;2023-09-30T08:17:31;11.68;;;6.28;;
60352;SDS011;46196;52.970;6.954;2023-09-30T08:19:59;10.15;;;5.35;;
60352;SDS011;46196;52.970;6.954;2023-09-30T08:22:25;10.40;;;5.25;;
60352;SDS011;46196;52.970;6.954;2023-09-30T08:24:53;10.95;;;5.43;;
60352;SDS011;46196;52.970;6.954;2023-09-30T08:27:19;10.18;;;4.90;;
60352;SDS011;46196;52.970;6.954;2023-09-30T08:29:45;9.80;;;5.38;;
60352;SDS011;46196;52.970;6.954;2023-09-30T08:32:11;12.80;;;5.80;;
60352;SDS011;46196;52.970;6.954;2023-09-30T08:34:37;11.90;;;5.78;;
60352;SDS011;46196;52.970;6.954;2023-09-30T08:37:02;10.85;;;5.60;;
60352;SDS011;46196;52.970;6.954;2023-09-30T08:39:28;10.95;;;4.72;;
60352;SDS011;46196;52.970;6.954;2023-09-30T08:41:55;10.85;;;4.60;;
60352;SDS011;46196;52.970;6.954;2023-09-30T08:44:21;8.57;;;5.15;;
60352;SDS011;46196;52.970;6.954;2023-09-30T08:46:47;10.60;;;5.43;;
60352;SDS011;46196;52.970;6.954;2023-09-30T08:49:15;8.80;;;4.55;;
60352;SDS011;46196;52.970;6.954;2023-09-30T08:51:43;8.98;;;4.65;;
60352;SDS011;46196;52.970;6.954;2023-09-30T08:54:09;7.47;;;4.13;;
60352;SDS011;46196;52.970;6.954;2023-09-30T08:56:34;7.47;;;4.70;;
60352;SDS011;46196;52.970;6.954;2023-09-30T08:59:02;8.68;;;4.53;;
60352;SDS011;46196;52.970;6.954;2023-09-30T09:01:29;11.68;;;5.25;;
60352;SDS011;46196;52.970;6.954;2023-09-30T09:03:56;9.48;;;4.88;;
60352;SDS011;46196;52.970;6.954;2023-09-30T09:06:22;8.07;;;4.43;;
60352;SDS011;46196;52.970;6.954;2023-09-30T09:08:49;9.98;;;4.30;;
60352;SDS011;46196;52.970;6.954;2023-09-30T09:11:15;11.70;;;5.00;;
60352;SDS011;46196;52.970;6.954;2023-09-30T09:13:46;8.52;;;4.63;;
60352;SDS011;46196;52.970;6.954;2023-09-30T09:16:15;10.07;;;4.60;;
60352;SDS011;46196;52.970;6.954;2023-09-30T09:18:43;10.23;;;5.33;;
60352;SDS011;46196;52.970;6.954;2023-09-30T09:21:12;12.32;;;4.63;;
60352;SDS011;46196;52.970;6.954;2023-09-30T09:23:39;8.57;;;3.92;;
60352;SDS011;46196;52.970;6.954;2023-09-30T09:26:07;10.13;;;4.17;;
60352;SDS011;46196;52.970;6.954;2023-09-30T09:28:34;9.75;;;4.38;;
60352;SDS011;46196;52.970;6.954;2023-09-30T09:31:01;8.05;;;4.15;;
60352;SDS011;46196;52.970;6.954;2023-09-30T09:33:37;8.48;;;4.20;;
60352;SDS011;46196;52.970;6.954;2023-09-30T09:36:03;8.50;;;4.18;;
60352;SDS011;46196;52.970;6.954;2023-09-30T09:38:43;14.43;;;4.70;;
60352;SDS011;46196;52.970;6.954;2023-09-30T09:41:18;7.80;;;4.25;;
60352;SDS011;46196;52.970;6.954;2023-09-30T09:43:44;9.52;;;4.20;;
60352;SDS011;46196;52.970;6.954;2023-09-30T09:46:14;10.13;;;4.38;;
60352;SDS011;46196;52.970;6.954;2023-09-30T09:48:42;11.25;;;4.57;;
60352;SDS011;46196;52.970;6.954;2023-09-30T09:51:11;8.32;;;3.92;;
60352;SDS011;46196;52.970;6.954;2023-09-30T09:53:39;11.85;;;4.25;;
60352;SDS011;46196;52.970;6.954;2023-09-30T09:56:09;8.93;;;4.28;;
60352;SDS011;46196;52.970;6.954;2023-09-30T09:58:36;10.57;;;3.42;;
60352;SDS011;46196;52.970;6.954;2023-09-30T10:03:31;12.20;;;4.07;;
60352;SDS011;46196;52.970;6.954;2023-09-30T10:05:58;7.75;;;3.53;;
60352;SDS011;46196;52.970;6.954;2023-09-30T10:08:30;9.80;;;4.15;;
60352;SDS011;46196;52.970;6.954;2023-09-30T10:11:16;6.75;;;3.47;;
60352;SDS011;46196;52.970;6.954;2023-09-30T10:13:49;7.72;;;3.92;;
60352;SDS011;46196;52.970;6.954;2023-09-30T10:19:10;10.43;;;3.28;;
60352;SDS011;46196;52.970;6.954;2023-09-30T10:24:41;6.35;;;3.50;;
60352;SDS011;46196;52.970;6.954;2023-09-30T10:30:06;8.35;;;3.20;;
60352;SDS011;46196;52.970;6.954;2023-09-30T10:33:12;9.48;;;3.35;;
60352;SDS011;46196;52.970;6.954;2023-09-30T10:41:03;9.35;;;3.40;;
60352;SDS011;46196;52.970;6.954;2023-09-30T10:43:29;8.75;;;2.80;;
60352;SDS011;46196;52.970;6.954;2023-09-30T10:48:52;8.82;;;3.42;;
60352;SDS011;46196;52.970;6.954;2023-09-30T10:51:18;10.13;;;3.83;;
60352;SDS011;46196;52.970;6.954;2023-09-30T10:58:51;9.90;;;3.55;;
60352;SDS011;46196;52.970;6.954;2023-09-30T11:01:18;9.38;;;3.63;;
60352;SDS011;46196;52.970;6.954;2023-09-30T11:03:46;6.40;;;3.00;;
60352;SDS011;46196;52.970;6.954;2023-09-30T11:06:16;9.43;;;3.33;;
60352;SDS011;46196;52.970;6.954;2023-09-30T11:08:51;10.48;;;2.90;;
60352;SDS011;46196;52.970;6.954;2023-09-30T11:11:31;5.55;;;2.60;;
60352;SDS011;46196;52.970;6.954;2023-09-30T11:14:18;5.00;;;2.83;;
60352;SDS011;46196;52.970;6.954;2023-09-30T11:16:45;6.38;;;2.65;;
60352;SDS011;46196;52.970;6.954;2023-09-30T11:19:12;8.80;;;3.65;;
60352;SDS011;46196;52.970;6.954;2023-09-30T11:21:38;10.18;;;3.47;;
60352;SDS011;46196;52.970;6.954;2023-09-30T11:24:05;6.35;;;2.92;;
60352;SDS011;46196;52.970;6.954;2023-09-30T11:26:32;7.53;;;2.80;;
60352;SDS011;46196;52.970;6.954;2023-09-30T11:31:54;5.63;;;2.50;;
60352;SDS011;46196;52.970;6.954;2023-09-30T11:34:30;8.90;;;2.90;;
60352;SDS011;46196;52.970;6.954;2023-09-30T11:36:57;5.50;;;2.70;;
60352;SDS011;46196;52.970;6.954;2023-09-30T11:39:26;7.72;;;2.60;;
60352;SDS011;46196;52.970;6.954;2023-09-30T11:41:56;6.57;;;2.45;;
60352;SDS011;46196;52.970;6.954;2023-09-30T11:44:22;5.43;;;2.90;;
60352;SDS011;46196;52.970;6.954;2023-09-30T11:49:24;7.13;;;2.55;;
60352;SDS011;46196;52.970;6.954;2023-09-30T11:51:55;6.85;;;2.80;;
60352;SDS011;46196;52.970;6.954;2023-09-30T11:54:27;6.72;;;2.40;;
60352;SDS011;46196;52.970;6.954;2023-09-30T11:56:54;6.30;;;2.50;;
60352;SDS011;46196;52.970;6.954;2023-09-30T11:59:19;4.75;;;2.42;;
60352;SDS011;46196;52.970;6.954;2023-09-30T12:01:47;13.20;;;3.30;;
60352;SDS011;46196;52.970;6.954;2023-09-30T12:04:19;8.50;;;2.88;;
60352;SDS011;46196;52.970;6.954;2023-09-30T12:06:46;5.20;;;2.30;;
60352;SDS011;46196;52.970;6.954;2023-09-30T12:09:16;6.50;;;2.70;;
60352;SDS011;46196;52.970;6.954;2023-09-30T12:11:47;5.72;;;2.72;;
60352;SDS011;46196;52.970;6.954;2023-09-30T12:14:14;6.63;;;2.65;;
60352;SDS011;46196;52.970;6.954;2023-09-30T12:16:41;5.57;;;2.92;;
60352;SDS011;46196;52.970;6.954;2023-09-30T12:19:07;8.70;;;2.95;;
60352;SDS011;46196;52.970;6.954;2023-09-30T12:21:33;6.85;;;3.10;;
60352;SDS011;46196;52.970;6.954;2023-09-30T12:24:00;8.23;;;2.63;;
60352;SDS011;46196;52.970;6.954;2023-09-30T12:26:26;8.02;;;2.58;;
60352;SDS011;46196;52.970;6.954;2023-09-30T12:28:52;7.38;;;3.03;;
60352;SDS011;46196;52.970;6.954;2023-09-30T12:31:18;6.43;;;2.25;;
60352;SDS011;46196;52.970;6.954;2023-09-30T12:33:45;6.22;;;2.30;;
60352;SDS011;46196;52.970;6.954;2023-09-30T12:36:15;5.97;;;3.05;;
60352;SDS011;46196;52.970;6.954;2023-09-30T12:38:42;3.78;;;2.45;;
60352;SDS011;46196;52.970;6.954;2023-09-30T12:41:08;7.57;;;2.42;;
60352;SDS011;46196;52.970;6.954;2023-09-30T12:43:33;6.20;;;2.40;;
60352;SDS011;46196;52.970;6.954;2023-09-30T12:45:59;3.38;;;2.10;;
60352;SDS011;46196;52.970;6.954;2023-09-30T12:48:25;5.53;;;2.20;;
60352;SDS011;46196;52.970;6.954;2023-09-30T12:50:51;4.55;;;2.03;;
60352;SDS011;46196;52.970;6.954;2023-09-30T12:53:16;5.95;;;2.30;;
60352;SDS011;46196;52.970;6.954;2023-09-30T12:55:42;8.18;;;2.60;;
60352;SDS011;46196;52.970;6.954;2023-09-30T12:58:08;5.78;;;2.50;;
60352;SDS011;46196;52.970;6.954;2023-09-30T13:00:34;6.78;;;2.80;;
60352;SDS011;46196;52.970;6.954;2023-09-30T13:03:01;8.35;;;2.95;;
60352;SDS011;46196;52.970;6.954;2023-09-30T13:05:27;4.47;;;2.40;;
60352;SDS011;46196;52.970;6.954;2023-09-30T13:07:56;4.40;;;2.38;;
60352;SDS011;46196;52.970;6.954;2023-09-30T13:10:22;6.93;;;2.17;;
60352;SDS011;46196;52.970;6.954;2023-09-30T13:12:48;6.20;;;2.63;;
60352;SDS011;46196;52.970;6.954;2023-09-30T13:15:15;5.90;;;2.30;;
60352;SDS011;46196;52.970;6.954;2023-09-30T13:17:42;9.85;;;3.03;;
60352;SDS011;46196;52.970;6.954;2023-09-30T13:20:08;8.98;;;2.30;;
60352;SDS011;46196;52.970;6.954;2023-09-30T13:22:37;5.00;;;2.30;;
60352;SDS011;46196;52.970;6.954;2023-09-30T13:25:03;10.35;;;2.83;;
60352;SDS011;46196;52.970;6.954;2023-09-30T13:27:30;5.07;;;2.25;;
60352;SDS011;46196;52.970;6.954;2023-09-30T13:29:56;8.13;;;2.80;;
60352;SDS011;46196;52.970;6.954;2023-09-30T13:32:26;4.95;;;2.70;;
60352;SDS011;46196;52.970;6.954;2023-09-30T13:34:53;4.97;;;2.33;;
60352;SDS011;46196;52.970;6.954;2023-09-30T13:37:19;7.20;;;2.63;;
60352;SDS011;46196;52.970;6.954;2023-09-30T13:39:45;7.47;;;2.42;;
60352;SDS011;46196;52.970;6.954;2023-09-30T13:42:10;4.97;;;2.20;;
60352;SDS011;46196;52.970;6.954;2023-09-30T13:44:36;6.90;;;2.50;;
60352;SDS011;46196;52.970;6.954;2023-09-30T13:47:02;5.43;;;2.20;;
60352;SDS011;46196;52.970;6.954;2023-09-30T13:49:28;6.45;;;2.72;;
60352;SDS011;46196;52.970;6.954;2023-09-30T13:51:55;4.85;;;2.20;;
60352;SDS011;46196;52.970;6.954;2023-09-30T13:54:21;4.53;;;2.22;;
60352;SDS011;46196;52.970;6.954;2023-09-30T13:56:47;9.23;;;2.90;;
60352;SDS011;46196;52.970;6.954;2023-09-30T13:59:13;6.20;;;2.70;;
60352;SDS011;46196;52.970;6.954;2023-09-30T14:01:38;4.97;;;2.45;;
60352;SDS011;46196;52.970;6.954;2023-09-30T14:04:06;4.57;;;2.17;;
60352;SDS011;46196;52.970;6.954;2023-09-30T14:06:32;6.90;;;2.42;;
60352;SDS011;46196;52.970;6.954;2023-09-30T14:08:58;4.95;;;2.40;;
60352;SDS011;46196;52.970;6.954;2023-09-30T14:11:25;6.43;;;2.97;;
60352;SDS011;46196;52.970;6.954;2023-09-30T14:13:51;6.18;;;2.60;;
60352;SDS011;46196;52.970;6.954;2023-09-30T14:16:17;5.28;;;2.40;;
60352;SDS011;46196;52.970;6.954;2023-09-30T14:18:42;6.78;;;2.38;;
60352;SDS011;46196;52.970;6.954;2023-09-30T14:21:10;6.68;;;2.90;;
60352;SDS011;46196;52.970;6.954;2023-09-30T14:23:35;8.30;;;2.53;;
60352;SDS011;46196;52.970;6.954;2023-09-30T14:26:01;8.60;;;2.38;;
60352;SDS011;46196;52.970;6.954;2023-09-30T14:28:35;6.50;;;2.25;;
60352;SDS011;46196;52.970;6.954;2023-09-30T14:31:03;4.72;;;2.10;;
60352;SDS011;46196;52.970;6.954;2023-09-30T14:33:29;6.63;;;2.50;;
60352;SDS011;46196;52.970;6.954;2023-09-30T14:35:55;5.75;;;2.25;;
60352;SDS011;46196;52.970;6.954;2023-09-30T14:38:21;7.25;;;2.58;;
60352;SDS011;46196;52.970;6.954;2023-09-30T14:40:47;6.80;;;2.55;;
60352;SDS011;46196;52.970;6.954;2023-09-30T14:43:13;5.75;;;2.60;;
60352;SDS011;46196;52.970;6.954;2023-09-30T14:45:39;6.15;;;2.30;;
60352;SDS011;46196;52.970;6.954;2023-09-30T14:48:08;5.45;;;2.42;;
60352;SDS011;46196;52.970;6.954;2023-09-30T14:50:36;6.10;;;2.70;;
60352;SDS011;46196;52.970;6.954;2023-09-30T14:53:02;5.20;;;2.55;;
60352;SDS011;46196;52.970;6.954;2023-09-30T14:55:31;5.00;;;2.22;;
60352;SDS011;46196;52.970;6.954;2023-09-30T14:57:57;5.43;;;2.30;;
60352;SDS011;46196;52.970;6.954;2023-09-30T15:00:23;4.22;;;2.60;;
60352;SDS011;46196;52.970;6.954;2023-09-30T15:02:50;6.45;;;2.85;;
60352;SDS011;46196;52.970;6.954;2023-09-30T15:05:16;6.43;;;2.72;;
60352;SDS011;46196;52.970;6.954;2023-09-30T15:07:42;5.53;;;2.40;;
60352;SDS011;46196;52.970;6.954;2023-09-30T15:10:08;6.50;;;2.67;;
60352;SDS011;46196;52.970;6.954;2023-09-30T15:12:34;4.55;;;2.40;;